Time;durP1;ratioP1;P1;durP2;ratioP2;P2;SDS_P1;SDS_P2;PMS_P1;PMS_P2;Temp;Humidity;BMP_temperature;BMP_pressure;BME280_temperature;BME280_humidity;BME280_pressure;Samples;Min_cycle;Max_cycle;Signal;HPM_P1;HPM_P2
2023/11/07 00:02:06;;;;;;;9.57;5.73;;;;;;;12.47;80.52;95217.88;4974477;28;20865;-80
2023/11/07 00:04:34;;;;;;;549.30;244.37;;;;;;;12.25;81.76;95224.16;4975439;28;20451;-81
2023/11/07 00:07:01;;;;;;;530.47;200.70;;;;;;;12.00;83.14;95228.03;4975280;28;20501;-81
2023/11/07 00:09:28;;;;;;;532.57;202.50;;;;;;;11.72;85.01;95221.63;4974547;28;20490;-80
2023/11/07 00:11:55;;;;;;;531.33;208.37;;;;;;;11.76;85.68;95236.16;4975068;28;20433;-81
2023/11/07 00:14:22;;;;;;;534.80;208.40;;;;;;;11.71;86.29;95236.56;4974588;28;20448;-80
2023/11/07 00:16:50;;;;;;;541.53;203.50;;;;;;;11.67;85.60;95240.41;4925248;28;20456;-81
2023/11/07 00:19:17;;;;;;;531.43;206.30;;;;;;;11.78;86.29;95243.00;4974994;28;20440;-80
2023/11/07 00:21:45;;;;;;;528.43;197.07;;;;;;;11.79;85.22;95236.78;4974563;28;20455;-81
2023/11/07 00:24:12;;;;;;;518.60;188.97;;;;;;;11.93;84.15;95238.25;4975105;28;20432;-81
2023/11/07 00:26:38;;;;;;;528.83;191.20;;;;;;;12.01;83.93;95243.69;4975003;28;20503;-81
2023/11/07 00:29:07;;;;;;;528.73;213.50;;;;;;;12.07;84.00;95242.34;4975083;28;20431;-81
2023/11/07 00:31:33;;;;;;;519.77;189.67;;;;;;;12.08;83.69;95234.31;4974872;28;20473;-81
2023/11/07 00:34:01;;;;;;;521.80;197.13;;;;;;;12.17;83.06;95237.97;4975136;28;20446;-80
2023/11/07 00:36:27;;;;;;;517.33;211.83;;;;;;;12.20;82.67;95237.72;4974818;28;20450;-81
2023/11/07 00:38:57;;;;;;;531.83;190.60;;;;;;;12.01;82.72;95240.22;4974685;28;20504;-81
2023/11/07 00:41:23;;;;;;;523.50;187.83;;;;;;;11.93;84.60;95240.88;4974442;28;20473;-81
2023/11/07 00:43:50;;;;;;;529.00;182.67;;;;;;;11.84;83.33;95238.19;4974335;28;20436;-81
2023/11/07 00:46:18;;;;;;;534.97;200.70;;;;;;;11.84;84.50;95240.81;4974443;28;20469;-80
2023/11/07 00:48:44;;;;;;;13.37;6.53;;;;;;;11.79;84.28;95230.69;4974479;28;20489;-81
2023/11/07 00:51:12;;;;;;;10.80;5.57;;;;;;;11.64;85.91;95240.66;4974700;28;20438;-81
2023/11/07 00:53:39;;;;;;;525.80;205.93;;;;;;;11.70;85.84;95249.84;4974497;28;20508;-80
2023/11/07 00:59:29;;;;;;;534.17;181.83;;;;;;;11.68;85.40;95254.38;4973686;28;20923;-81
2023/11/07 01:01:55;;;;;;;534.17;195.57;;;;;;;11.70;86.09;95249.84;4974571;28;20437;-80
2023/11/07 01:04:23;;;;;;;533.17;185.60;;;;;;;11.69;85.99;95249.00;4974446;28;20889;-80
2023/11/07 01:06:50;;;;;;;540.80;192.07;;;;;;;11.57;85.71;95257.91;4974688;28;20778;-80
2023/11/07 01:09:19;;;;;;;531.07;185.53;;;;;;;11.43;86.40;95253.78;4940859;28;20450;-80
2023/11/07 01:11:46;;;;;;;531.57;186.07;;;;;;;11.42;85.30;95259.16;4941626;28;20524;-81
2023/11/07 01:14:12;;;;;;;530.50;179.20;;;;;;;11.26;85.07;95264.00;4976685;28;20425;-81
2023/11/07 01:16:41;;;;;;;527.13;165.20;;;;;;;11.31;86.31;95259.22;4977902;28;20433;-80
2023/11/07 01:19:07;;;;;;;526.40;167.77;;;;;;;11.30;86.30;95260.19;4977622;28;20444;-81
2023/11/07 01:21:34;;;;;;;526.30;170.07;;;;;;;11.32;87.26;95260.91;4977937;28;20940;-80
2023/11/07 01:24:01;;;;;;;524.80;175.27;;;;;;;11.38;86.70;95260.38;4978102;28;20427;-81
2023/11/07 01:26:28;;;;;;;524.57;155.60;;;;;;;11.23;86.49;95256.38;4977772;28;20517;-81
2023/11/07 01:28:55;;;;;;;520.60;156.97;;;;;;;11.26;85.48;95275.34;4978046;28;20476;-81
2023/11/07 01:31:22;;;;;;;520.07;165.20;;;;;;;11.31;87.33;95275.00;4978191;28;20443;-80
2023/11/07 01:33:50;;;;;;;516.90;161.90;;;;;;;11.33;86.43;95271.28;4978317;28;20532;-80
2023/11/07 01:36:17;;;;;;;516.17;152.73;;;;;;;11.33;87.41;95279.16;4977896;28;20451;-80
2023/11/07 01:38:43;;;;;;;519.33;166.17;;;;;;;11.38;87.59;95281.41;4977682;28;20476;-81
2023/11/07 01:41:10;;;;;;;515.43;149.13;;;;;;;11.29;87.20;95279.53;4978009;28;20464;-81
2023/11/07 01:43:39;;;;;;;514.57;156.00;;;;;;;11.20;87.13;95278.47;4977436;28;20519;-81
2023/11/07 01:46:06;;;;;;;514.97;157.33;;;;;;;11.16;87.39;95290.19;4977134;28;20441;-81
2023/11/07 01:48:33;;;;;;;515.57;153.97;;;;;;;11.21;87.09;95295.06;4978020;28;20496;-81
2023/11/07 01:51:03;;;;;;;515.00;155.07;;;;;;;11.21;87.12;95282.75;4977650;28;20439;-81
2023/11/07 01:53:31;;;;;;;514.37;151.97;;;;;;;11.25;86.17;95293.84;4977857;28;20456;-81
2023/11/07 01:55:59;;;;;;;514.87;151.97;;;;;;;11.30;85.29;95292.56;4977727;28;20438;-81
2023/11/07 01:58:26;;;;;;;516.33;148.27;;;;;;;11.35;86.40;95281.66;4977386;28;20904;-80
2023/11/07 02:00:56;;;;;;;515.93;155.97;;;;;;;11.39;86.15;95280.44;4977054;28;20452;-81
2023/11/07 02:03:25;;;;;;;512.20;148.30;;;;;;;11.41;85.53;95276.72;4944057;28;20457;-81
2023/11/07 02:05:52;;;;;;;511.20;148.00;;;;;;;11.43;85.02;95280.06;4977208;28;20739;-81
2023/11/07 02:08:23;;;;;;;514.50;158.50;;;;;;;11.45;85.23;95290.44;4958761;28;20516;-81
2023/11/07 02:10:50;;;;;;;517.47;161.73;;;;;;;11.47;84.25;95280.66;4976903;28;20485;-81
2023/11/07 02:13:17;;;;;;;517.03;153.80;;;;;;;11.49;84.76;95279.56;4977646;28;20444;-80
2023/11/07 02:15:44;;;;;;;513.30;155.40;;;;;;;11.47;85.08;95291.16;4977112;28;20430;-81
2023/11/07 02:18:11;;;;;;;513.90;150.60;;;;;;;11.42;85.91;95293.34;4976573;28;20813;-81
2023/11/07 02:20:38;;;;;;;514.10;158.40;;;;;;;11.38;86.54;95289.28;4977536;28;20464;-81
2023/11/07 02:23:09;;;;;;;511.10;151.30;;;;;;;11.39;86.29;95288.31;4976507;28;20900;-81
2023/11/07 02:25:38;;;;;;;514.97;150.33;;;;;;;11.39;85.94;95286.53;4976338;28;20496;-81
2023/11/07 02:28:05;;;;;;;513.03;157.90;;;;;;;11.40;85.18;95290.00;4977031;28;20468;-80
2023/11/07 02:30:32;;;;;;;513.83;166.63;;;;;;;11.37;84.43;95290.25;4977036;28;20453;-80
2023/11/07 02:33:04;;;;;;;519.40;163.20;;;;;;;11.30;85.00;95292.56;4976271;28;20460;-80
2023/11/07 02:35:31;;;;;;;516.10;158.73;;;;;;;11.23;84.70;95288.72;4976859;28;20440;-81
2023/11/07 02:37:58;;;;;;;518.00;169.73;;;;;;;11.21;85.64;95293.28;4976324;28;20477;-81
2023/11/07 02:40:24;;;;;;;515.50;155.07;;;;;;;11.18;85.31;95288.28;4958308;28;20441;-81
2023/11/07 02:42:56;;;;;;;519.67;166.60;;;;;;;11.20;84.44;95298.66;4977029;28;20433;-80
2023/11/07 02:45:23;;;;;;;521.47;157.40;;;;;;;11.13;85.43;95293.91;4976878;28;20421;-81
2023/11/07 02:47:50;;;;;;;515.77;146.93;;;;;;;11.21;84.83;95295.06;4976842;28;20484;-81
2023/11/07 02:50:18;;;;;;;512.90;156.93;;;;;;;11.24;85.67;95302.69;4976749;28;20445;-80
2023/11/07 02:52:45;;;;;;;513.93;152.53;;;;;;;11.28;84.80;95304.97;4958623;28;20900;-81
2023/11/07 02:55:12;;;;;;;513.47;155.40;;;;;;;11.34;84.41;95301.00;4976047;28;20936;-81
2023/11/07 02:57:38;;;;;;;517.20;160.97;;;;;;;11.29;84.45;95297.94;4976552;28;20429;-80
2023/11/07 03:00:09;;;;;;;514.10;159.03;;;;;;;11.28;85.32;95299.72;4976736;28;20430;-80
2023/11/07 03:02:37;;;;;;;513.17;153.80;;;;;;;11.05;84.72;95295.47;4976344;28;20438;-81
2023/11/07 03:11:47;;;;;;;518.90;151.10;;;;;;;10.71;86.85;95299.97;4975837;28;20392;-81
2023/11/07 03:14:13;;;;;;;520.73;158.10;;;;;;;10.55;86.61;95311.63;4976186;28;20449;-80
2023/11/07 03:16:42;;;;;;;523.93;160.20;;;;;;;10.24;87.96;95314.97;4975800;28;20441;-80
2023/11/07 03:19:09;;;;;;;520.37;158.30;;;;;;;10.23;87.12;95318.53;4976456;28;20728;-81
2023/11/07 03:21:36;;;;;;;516.47;148.20;;;;;;;10.18;88.08;95316.25;4975746;28;20436;-81
2023/11/07 03:24:04;;;;;;;517.27;145.20;;;;;;;10.21;88.43;95320.44;4975884;28;20425;-80
2023/11/07 03:29:53;;;;;;;512.70;148.17;;;;;;;10.22;87.64;95322.13;4974239;28;20588;-80
2023/11/07 03:32:21;;;;;;;519.53;156.13;;;;;;;10.22;87.13;95317.72;4975860;28;20500;-81
2023/11/07 03:34:48;;;;;;;515.07;148.23;;;;;;;10.14;86.10;95322.69;4975460;28;20437;-80
2023/11/07 03:37:14;;;;;;;523.50;153.27;;;;;;;10.14;87.54;95319.22;4956635;28;20448;-80
2023/11/07 03:39:41;;;;;;;516.57;148.83;;;;;;;10.15;87.71;95321.72;4976265;28;20480;-80
2023/11/07 03:42:08;;;;;;;517.57;144.23;;;;;;;10.17;88.69;95330.31;4942009;28;20456;-81
2023/11/07 03:44:35;;;;;;;509.80;140.70;;;;;;;10.18;88.42;95321.50;4974959;28;20461;-81
2023/11/07 03:47:05;;;;;;;518.60;143.90;;;;;;;10.13;88.89;95328.88;4975864;28;20456;-80
2023/11/07 03:49:34;;;;;;;518.67;154.80;;;;;;;10.10;88.80;95328.25;4975711;28;20512;-81
2023/11/07 03:52:01;;;;;;;512.20;141.63;;;;;;;10.11;87.27;95330.75;4975344;28;20430;-80
2023/11/07 03:54:28;;;;;;;516.80;146.03;;;;;;;10.02;87.10;95325.38;4974785;28;20922;-80
2023/11/07 03:56:54;;;;;;;511.00;137.53;;;;;;;10.00;88.51;95332.53;4957139;28;20445;-81
2023/11/07 03:59:21;;;;;;;512.93;136.50;;;;;;;9.97;88.62;95333.59;4974970;28;20449;-80
2023/11/07 04:01:48;;;;;;;510.67;137.03;;;;;;;9.97;89.53;95338.84;4974678;28;20807;-81
2023/11/07 04:04:15;;;;;;;506.40;135.10;;;;;;;9.91;89.08;95337.53;4974829;28;20479;-81
2023/11/07 04:06:43;;;;;;;511.20;143.37;;;;;;;9.71;90.46;95339.94;4991461;28;20444;-81
2023/11/07 04:09:09;;;;;;;514.60;138.83;;;;;;;9.66;91.17;95344.69;4960338;28;20487;-81
2023/11/07 04:11:36;;;;;;;512.40;138.63;;;;;;;9.72;91.61;95339.81;4994326;28;20450;-80
2023/11/07 04:14:03;;;;;;;514.83;146.03;;;;;;;9.78;91.50;95338.53;4994186;28;20435;-80
2023/11/07 04:16:30;;;;;;;516.17;140.07;;;;;;;9.67;92.21;95334.09;4994245;28;20915;-81
2023/11/07 04:18:57;;;;;;;511.97;139.37;;;;;;;9.48;92.98;95328.53;4960537;28;20440;-80
2023/11/07 04:21:24;;;;;;;518.00;144.80;;;;;;;9.56;91.31;95341.94;4960330;28;20448;-80
2023/11/07 04:23:52;;;;;;;518.33;140.20;;;;;;;9.64;91.88;95331.72;4994234;28;20448;-79
2023/11/07 04:26:19;;;;;;;513.37;139.87;;;;;;;9.68;91.55;95333.16;4994581;28;20432;-82
2023/11/07 04:28:46;;;;;;;512.80;138.50;;;;;;;9.67;91.95;95339.34;4994370;28;20491;-81
2023/11/07 04:31:15;;;;;;;512.60;139.73;;;;;;;9.62;91.12;95336.22;4994298;28;20475;-80
2023/11/07 04:33:42;;;;;;;527.53;167.27;;;;;;;9.70;91.27;95335.66;4985466;28;20474;-78
2023/11/07 04:36:10;;;;;;;519.00;148.63;;;;;;;9.68;91.26;95327.06;4975046;28;20205;-80
2023/11/07 04:38:36;;;;;;;525.00;151.63;;;;;;;9.60;92.39;95331.09;4940290;28;20556;-79
2023/11/07 04:41:05;;;;;;;525.70;152.47;;;;;;;9.66;91.01;95339.44;4974680;28;20900;-81
2023/11/07 04:43:35;;;;;;;539.33;163.37;;;;;;;9.70;90.89;95346.13;4974430;28;20457;-81
2023/11/07 04:46:02;;;;;;;523.20;149.63;;;;;;;9.65;89.99;95346.47;4974942;28;20474;-85
2023/11/07 04:48:31;;;;;;;532.40;154.93;;;;;;;9.59;89.46;95347.78;4977181;28;20473;-81
2023/11/07 04:50:59;;;;;;;535.13;169.10;;;;;;;9.62;89.29;95351.94;4978420;28;20902;-81
2023/11/07 04:59:29;;;;;;;529.20;157.60;;;;;;;9.64;89.94;95352.66;4917402;29;20859;-81
2023/11/07 05:01:56;;;;;;;524.03;151.77;;;;;;;9.62;90.34;95349.31;4918675;29;20444;-83
2023/11/07 05:04:23;;;;;;;527.73;148.57;;;;;;;9.60;89.69;95361.72;4918332;29;20440;-82
2023/11/07 05:06:50;;;;;;;528.60;158.90;;;;;;;9.58;89.79;95353.13;4918520;29;20499;-83
2023/11/07 05:09:17;;;;;;;525.27;156.63;;;;;;;9.60;89.88;95356.47;4917969;29;20981;-82
2023/11/07 05:11:44;;;;;;;524.63;156.57;;;;;;;9.62;90.27;95367.66;4918135;29;20440;-83
2023/11/07 05:14:11;;;;;;;525.93;161.23;;;;;;;9.65;89.38;95362.19;4918151;29;20440;-82
2023/11/07 05:16:41;;;;;;;522.03;145.43;;;;;;;9.66;90.08;95363.88;4918715;29;20439;-81
2023/11/07 05:19:09;;;;;;;538.83;179.00;;;;;;;9.69;90.58;95362.81;4917708;29;20463;-82
2023/11/07 05:21:36;;;;;;;524.60;152.63;;;;;;;9.75;90.49;95370.22;4917705;29;20534;-82
2023/11/07 05:24:04;;;;;;;524.80;154.93;;;;;;;9.79;90.63;95376.91;4918069;29;20965;-81
2023/11/07 05:26:31;;;;;;;534.80;164.30;;;;;;;9.86;90.67;95373.72;4917637;29;20503;-81
2023/11/07 05:28:58;;;;;;;14.90;10.10;;;;;;;9.96;89.97;95373.03;4917733;29;20476;-82
2023/11/07 05:31:26;;;;;;;18.57;10.73;;;;;;;10.38;90.55;95372.44;4917465;29;20448;-83
2023/11/07 05:33:54;;;;;;;18.20;10.20;;;;;;;11.10;88.71;95378.19;4953490;28;20459;-81
2023/11/07 05:36:21;;;;;;;24.87;9.20;;;;;;;11.85;84.37;95384.47;4976303;28;20538;-82
2023/11/07 05:38:49;;;;;;;15.90;8.93;;;;;;;12.69;80.67;95388.78;4959394;28;20474;-84
2023/11/07 05:41:16;;;;;;;27.70;9.63;;;;;;;13.55;77.60;95390.09;4977326;28;20546;-86
2023/11/07 05:43:44;;;;;;;26.20;12.03;;;;;;;14.20;73.23;95386.00;4977910;28;20517;-86
2023/11/07 05:46:11;;;;;;;18.23;10.80;;;;;;;14.81;70.96;95399.69;4943635;28;20453;-86
2023/11/07 05:48:38;;;;;;;20.87;11.27;;;;;;;15.30;69.38;95404.78;4944003;28;20478;-86
2023/11/07 05:51:07;;;;;;;32.13;10.53;;;;;;;15.68;66.82;95407.28;4977388;28;20457;-86
2023/11/07 05:53:34;;;;;;;20.93;11.07;;;;;;;16.06;65.79;95408.00;4943958;28;20475;-86
2023/11/07 05:56:01;;;;;;;22.73;10.70;;;;;;;16.40;64.30;95406.31;4980118;28;20454;-88
2023/11/07 05:58:29;;;;;;;24.60;10.30;;;;;;;16.67;64.02;95413.34;4977229;28;20457;-85
2023/11/07 06:00:57;;;;;;;24.20;16.37;;;;;;;16.80;62.35;95420.91;4976695;28;21056;-87
2023/11/07 06:03:24;;;;;;;17.10;9.50;;;;;;;16.78;62.33;95416.75;4976953;28;20469;-85
2023/11/07 06:05:51;;;;;;;20.93;10.80;;;;;;;16.97;61.77;95433.28;4976813;28;20448;-87
2023/11/07 06:08:20;;;;;;;20.47;11.13;;;;;;;17.10;61.92;95435.53;4977011;28;20602;-87
2023/11/07 06:10:47;;;;;;;16.70;10.13;;;;;;;17.07;61.83;95438.50;4976930;28;20901;-85
2023/11/07 06:13:15;;;;;;;516.90;428.47;;;;;;;16.83;62.23;95440.97;4992087;28;20496;-87
2023/11/07 06:19:10;;;;;;;7.10;6.20;;;;;;;16.55;63.51;95434.94;4984366;28;20515;-88
2023/11/07 06:21:37;;;;;;;7.83;6.13;;;;;;;16.40;63.62;95434.63;4976401;28;20450;-84
2023/11/07 06:24:06;;;;;;;8.77;5.73;;;;;;;16.21;63.55;95440.09;4976497;28;20430;-82
2023/11/07 06:26:34;;;;;;;9.53;6.33;;;;;;;16.11;63.97;95443.63;4976502;28;20497;-81
2023/11/07 06:29:00;;;;;;;4.97;3.83;;;;;;;15.94;65.96;95452.38;4976577;28;20544;-89
2023/11/07 06:31:28;;;;;;;11.73;4.77;;;;;;;15.96;65.61;95447.78;4976885;28;20451;-88
2023/11/07 06:33:55;;;;;;;7.27;5.13;;;;;;;15.95;65.86;95451.41;4983015;28;20480;-85
2023/11/07 06:36:24;;;;;;;9.77;5.00;;;;;;;15.94;66.72;95452.38;4995777;28;20527;-86
2023/11/07 06:38:50;;;;;;;17.33;5.20;;;;;;;15.76;66.86;95446.22;4995648;28;20482;-81
2023/11/07 06:41:19;;;;;;;7.93;6.37;;;;;;;15.73;67.72;95452.66;4995962;28;20443;-86
2023/11/07 06:43:48;;;;;;;10.37;7.90;;;;;;;15.58;67.96;95454.09;4995177;28;20425;-86
2023/11/07 06:46:15;;;;;;;18.07;8.90;;;;;;;15.37;69.21;95456.13;4996008;28;20441;-85
2023/11/07 06:52:28;;;;;;;18.43;10.30;;;;;;;15.04;71.47;95468.06;4995531;28;20448;-85
2023/11/07 06:54:55;;;;;;;49.03;20.93;;;;;;;14.92;72.20;95469.19;4996769;28;20436;-84
2023/11/07 06:57:23;;;;;;;27.60;11.90;;;;;;;14.72;73.39;95471.84;4962340;28;20447;-80
2023/11/07 06:59:50;;;;;;;17.33;11.13;;;;;;;14.33;75.03;95470.19;4980754;28;20457;-82
2023/11/07 07:02:17;;;;;;;19.23;10.13;;;;;;;14.19;75.62;95460.88;4975472;28;20438;-82
2023/11/07 07:11:33;;;;;;;21.43;10.27;;;;;;;14.16;76.18;95469.88;4955781;28;20463;-82
2023/11/07 07:14:02;;;;;;;21.13;10.23;;;;;;;14.08;76.36;95476.84;4975419;28;20443;-82
2023/11/07 07:16:30;;;;;;;17.33;9.33;;;;;;;13.62;78.00;95473.00;4975381;28;20436;-81
2023/11/07 07:18:57;;;;;;;12.67;8.63;;;;;;;13.36;78.22;95466.53;4957081;28;20438;-81
2023/11/07 07:21:25;;;;;;;15.53;9.23;;;;;;;13.37;78.74;95470.81;4972550;28;20451;-84
2023/11/07 07:23:53;;;;;;;16.83;8.90;;;;;;;12.97;80.01;95469.75;4975086;28;20448;-85
2023/11/07 07:26:22;;;;;;;17.73;8.67;;;;;;;12.78;81.62;95474.94;4975058;28;20455;-85
2023/11/07 07:28:53;;;;;;;11.07;9.07;;;;;;;12.93;82.91;95483.31;4975481;28;20806;-86
2023/11/07 07:31:27;;;;;;;16.00;9.57;;;;;;;12.85;83.60;95476.06;4975519;28;20469;-86
2023/11/07 07:33:56;;;;;;;15.47;9.37;;;;;;;12.74;82.54;95473.53;4943417;28;20476;-85
2023/11/07 07:36:23;;;;;;;17.20;9.43;;;;;;;12.96;83.12;95477.78;4975297;28;20463;-85
2023/11/07 07:45:33;;;;;;;14.73;7.93;;;;;;;13.02;83.63;95475.50;4974316;28;20478;-85
2023/11/07 07:48:02;;;;;;;15.03;9.50;;;;;;;13.13;82.74;95474.56;4974697;28;20447;-84
2023/11/07 07:50:30;;;;;;;16.10;8.70;;;;;;;13.12;82.80;95478.16;4973821;28;20545;-84
2023/11/07 07:52:58;;;;;;;26.63;8.80;;;;;;;13.32;82.72;95482.59;4974637;28;20452;-84
2023/11/07 07:55:27;;;;;;;19.73;8.00;;;;;;;13.32;82.10;95479.13;4974280;28;20808;-83
2023/11/07 07:57:54;;;;;;;21.13;8.27;;;;;;;13.49;82.76;95480.28;4974109;28;20452;-82
2023/11/07 08:00:24;;;;;;;17.10;8.30;;;;;;;13.51;82.77;95476.56;4974138;28;20472;-82
2023/11/07 08:02:51;;;;;;;9.40;6.90;;;;;;;13.41;81.62;95475.69;4973902;28;20445;-82
2023/11/07 08:05:20;;;;;;;12.20;6.87;;;;;;;13.52;82.52;95469.47;4973945;28;20448;-82
2023/11/07 08:07:48;;;;;;;11.20;8.17;;;;;;;13.68;85.35;95472.47;4924677;28;20457;-83
2023/11/07 08:10:19;;;;;;;21.30;10.50;;;;;;;13.54;83.56;95468.38;4974038;28;20851;-82
2023/11/07 08:12:47;;;;;;;11.80;8.37;;;;;;;13.47;82.33;95466.41;4956624;28;20447;-84
2023/11/07 08:15:14;;;;;;;16.77;8.40;;;;;;;13.51;83.66;95463.38;4974165;28;20451;-85
2023/11/07 08:17:41;;;;;;;13.07;7.80;;;;;;;13.43;83.46;95455.31;4974605;28;20441;-82
2023/11/07 08:20:14;;;;;;;17.10;7.93;;;;;;;13.66;83.36;95457.75;4977101;28;20456;-85
2023/11/07 08:22:43;;;;;;;11.80;7.43;;;;;;;13.83;84.51;95454.44;4978154;28;20447;-86
2023/11/07 08:25:11;;;;;;;13.00;8.53;;;;;;;13.80;81.41;95450.25;4980005;28;20513;-87
2023/11/07 08:27:38;;;;;;;18.00;9.83;;;;;;;13.97;81.96;95448.78;4974199;28;20493;-85
2023/11/07 08:30:09;;;;;;;16.57;7.53;;;;;;;14.05;83.68;95448.91;4974644;28;20489;-87
2023/11/07 08:32:36;;;;;;;18.50;7.83;;;;;;;14.18;80.59;95446.84;4974839;28;20444;-86
2023/11/07 08:35:06;;;;;;;9.07;6.67;;;;;;;14.19;78.62;95443.25;4955854;28;20934;-86
2023/11/07 08:37:34;;;;;;;12.00;6.80;;;;;;;14.11;78.01;95451.00;4973864;28;20453;-86
2023/11/07 08:40:06;;;;;;;17.23;7.73;;;;;;;14.31;79.82;95441.28;4972055;28;20438;-85
2023/11/07 08:42:32;;;;;;;14.90;6.50;;;;;;;14.48;78.26;95442.44;4973466;28;20533;-89
2023/11/07 08:45:00;;;;;;;14.23;6.70;;;;;;;16.84;100.00;95437.34;4972538;28;20996;-86
2023/11/07 08:47:27;;;;;;;7.77;6.93;;;;;;;17.75;87.82;95459.75;4972672;28;20916;-85
2023/11/07 08:49:57;;;;;;;9.63;6.63;;;;;;;17.64;76.58;95447.59;4973964;28;20493;-85
2023/11/07 08:52:24;;;;;;;10.60;5.93;;;;;;;17.27;72.66;95439.91;4973588;28;20448;-85
2023/11/07 08:54:51;;;;;;;13.67;7.23;;;;;;;17.01;69.77;95431.13;4973284;28;20974;-85
2023/11/07 08:57:19;;;;;;;17.13;6.53;;;;;;;16.98;72.13;95440.22;4973281;28;21010;-85
2023/11/07 08:59:46;;;;;;;10.30;6.03;;;;;;;16.50;69.98;95439.84;4972899;28;20456;-79
2023/11/07 09:02:13;;;;;;;7.37;5.63;;;;;;;16.14;71.06;95439.00;4973330;28;20455;-84
2023/11/07 09:04:43;;;;;;;10.43;5.03;;;;;;;16.06;72.43;95437.94;4973069;28;20440;-85
2023/11/07 09:07:12;;;;;;;10.77;5.50;;;;;;;15.76;70.84;95435.63;4940168;28;20483;-85
2023/11/07 09:09:39;;;;;;;6.30;4.77;;;;;;;15.91;71.69;95439.47;4973359;28;20492;-84
2023/11/07 09:12:10;;;;;;;7.87;5.73;;;;;;;16.00;71.64;95440.38;4972748;28;20940;-84
2023/11/07 09:14:38;;;;;;;11.03;5.60;;;;;;;16.20;74.42;95444.56;4973174;28;20453;-85
2023/11/07 09:17:05;;;;;;;7.87;4.80;;;;;;;16.25;74.90;95436.16;4973074;28;20521;-81
2023/11/07 09:19:32;;;;;;;9.50;4.80;;;;;;;17.32;84.88;95427.00;4973439;28;20513;-79
2023/11/07 09:22:00;;;;;;;8.77;4.50;;;;;;;18.05;75.86;95428.31;4972808;28;20439;-77
2023/11/07 09:24:26;;;;;;;12.57;5.70;;;;;;;18.64;72.10;95419.28;4972691;28;20482;-77
2023/11/07 09:26:55;;;;;;;11.77;4.43;;;;;;;19.43;70.86;95417.66;4972901;28;20446;-78
2023/11/07 09:29:23;;;;;;;14.57;5.77;;;;;;;19.65;67.21;95414.25;4972798;28;20452;-78
2023/11/07 09:31:52;;;;;;;8.10;4.30;;;;;;;19.68;60.46;95411.28;4972805;28;20458;-78
2023/11/07 09:34:20;;;;;;;18.07;6.07;;;;;;;19.73;65.66;95402.75;4955444;28;20529;-77
2023/11/07 09:36:47;;;;;;;5.77;5.17;;;;;;;19.64;61.64;95401.94;4976574;28;20463;-77
2023/11/07 09:39:14;;;;;;;15.33;5.53;;;;;;;19.52;64.78;95403.31;4976245;28;20476;-78
2023/11/07 09:41:43;;;;;;;10.57;4.33;;;;;;;19.85;66.23;95397.88;4942399;28;20442;-80
2023/11/07 09:44:11;;;;;;;7.30;4.67;;;;;;;19.50;59.33;95406.16;4976587;28;20453;-82
2023/11/07 09:46:40;;;;;;;9.53;4.57;;;;;;;19.15;59.54;95398.59;4976167;28;20502;-87
2023/11/07 09:49:08;;;;;;;8.40;4.07;;;;;;;18.76;60.35;95401.16;4942424;28;20821;-83
2023/11/07 09:51:37;;;;;;;8.50;4.30;;;;;;;18.56;62.45;95395.31;4942088;28;20853;-83
2023/11/07 09:54:06;;;;;;;10.73;5.13;;;;;;;18.45;63.87;95393.81;4976429;28;20441;-83
2023/11/07 09:56:38;;;;;;;6.73;4.07;;;;;;;18.27;62.78;95399.31;4976429;28;20476;-83
2023/11/07 09:59:14;;;;;;;7.13;4.30;;;;;;;18.11;62.12;95398.44;4975958;28;20450;-83
2023/11/07 10:01:41;;;;;;;5.20;3.80;;;;;;;17.93;61.91;95390.63;4975935;28;20469;-82
2023/11/07 10:04:09;;;;;;;7.23;3.80;;;;;;;17.80;62.87;95383.09;4975847;28;20454;-82
2023/11/07 10:06:36;;;;;;;13.90;4.00;;;;;;;17.82;63.54;95370.50;4942161;28;20441;-82
2023/11/07 10:09:04;;;;;;;7.57;4.23;;;;;;;17.72;62.32;95359.22;4975978;28;20447;-82
2023/11/07 10:11:45;;;;;;;9.10;4.60;;;;;;;17.50;63.27;95346.50;4975646;28;20850;-82
2023/11/07 10:14:12;;;;;;;4.70;3.40;;;;;;;17.59;63.96;95349.00;4975701;28;20948;-83
2023/11/07 10:16:41;;;;;;;5.70;3.63;;;;;;;17.61;63.08;95347.03;4975589;28;20457;-84
2023/11/07 10:19:14;;;;;;;4.60;3.30;;;;;;;17.64;63.63;95345.91;4975933;28;20490;-83
2023/11/07 10:21:40;;;;;;;9.27;3.80;;;;;;;17.64;64.17;95328.16;4975614;28;20855;-84
2023/11/07 10:24:07;;;;;;;5.40;3.40;;;;;;;17.81;67.48;95320.22;4975416;28;20453;-83
2023/11/07 10:26:34;;;;;;;14.63;4.40;;;;;;;17.90;63.53;95325.38;4975783;28;20471;-84
2023/11/07 10:29:12;;;;;;;8.30;3.33;;;;;;;17.82;62.29;95322.72;4975465;28;20441;-84
2023/11/07 10:31:40;;;;;;;46.40;41.70;;;;;;;17.84;61.71;95306.63;4976112;28;20490;-84
2023/11/07 10:34:15;;;;;;;10.53;3.30;;;;;;;17.93;63.88;95306.50;4975357;28;20459;-83
2023/11/07 10:36:42;;;;;;;11.50;3.67;;;;;;;18.07;65.49;95306.81;4975633;28;20458;-83
2023/11/07 10:39:16;;;;;;;55.27;49.00;;;;;;;18.16;61.32;95297.84;4975389;28;20485;-84
2023/11/07 10:41:44;;;;;;;5.20;2.83;;;;;;;18.16;59.98;95296.00;4975175;28;20467;-84
2023/11/07 10:44:23;;;;;;;8.07;2.67;;;;;;;18.15;58.95;95296.19;4975316;28;20509;-83
2023/11/07 10:46:51;;;;;;;6.60;3.17;;;;;;;18.24;58.76;95295.19;4975328;28;20816;-84
2023/11/07 10:49:20;;;;;;;3.50;2.50;;;;;;;18.31;59.53;95282.91;4975208;28;20445;-84
2023/11/07 10:51:48;;;;;;;4.70;2.73;;;;;;;18.08;58.56;95288.06;4975081;28;20489;-84
2023/11/07 10:54:19;;;;;;;7.53;3.43;;;;;;;18.04;59.27;95285.91;4974875;28;20459;-84
2023/11/07 10:56:46;;;;;;;9.10;3.23;;;;;;;18.07;60.02;95277.59;4975329;28;20449;-84
2023/11/07 10:59:20;;;;;;;7.53;3.10;;;;;;;18.10;58.68;95274.59;4975182;28;20449;-83
2023/11/07 11:01:50;;;;;;;9.17;4.07;;;;;;;18.21;59.76;95268.94;4975388;28;20435;-83
2023/11/07 11:04:21;;;;;;;9.37;3.97;;;;;;;18.08;57.05;95260.66;4940882;28;20845;-84
2023/11/07 11:06:52;;;;;;;4.80;2.67;;;;;;;17.97;56.74;95251.22;4974760;28;20443;-83
2023/11/07 11:09:21;;;;;;;4.60;2.67;;;;;;;18.10;58.20;95256.00;4974946;28;20473;-83
2023/11/07 11:11:49;;;;;;;11.83;4.10;;;;;;;18.19;57.96;95250.50;4974823;28;20485;-84
2023/11/07 11:14:16;;;;;;;6.37;2.67;;;;;;;18.22;57.67;95250.22;4974492;28;20942;-84
2023/11/07 11:16:46;;;;;;;8.00;3.77;;;;;;;18.30;60.35;95238.72;4974629;28;20445;-83
2023/11/07 11:19:24;;;;;;;6.90;2.93;;;;;;;18.39;62.25;95242.19;4974708;28;20536;-83
2023/11/07 11:21:58;;;;;;;12.30;3.00;;;;;;;18.40;57.20;95243.84;4974843;28;20541;-83
2023/11/07 11:24:49;;;;;;;13.83;3.40;;;;;;;18.36;58.17;95245.19;4974694;28;20446;-84
2023/11/07 11:27:22;;;;;;;7.80;2.77;;;;;;;18.42;59.97;95252.47;4956588;28;20447;-83
2023/11/07 11:29:50;;;;;;;9.23;3.20;;;;;;;18.52;60.27;95251.31;4975493;28;20542;-83
2023/11/07 11:32:27;;;;;;;8.90;3.97;;;;;;;18.55;58.41;95231.53;4975235;28;20489;-83
2023/11/07 11:35:28;;;;;;;7.13;3.17;;;;;;;18.64;59.60;95233.19;4924802;28;20468;-83
2023/11/07 11:38:09;;;;;;;7.33;3.90;;;;;;;18.69;57.93;95241.47;4974196;28;20974;-83
2023/11/07 11:40:54;;;;;;;7.17;3.80;;;;;;;18.72;59.13;95232.34;4974589;28;20801;-83
2023/11/07 11:43:22;;;;;;;9.50;2.97;;;;;;;18.75;58.27;95237.31;4974042;28;20455;-83
2023/11/07 11:45:50;;;;;;;4.83;2.90;;;;;;;18.74;56.30;95238.31;4974406;28;20788;-84
2023/11/07 11:48:18;;;;;;;13.43;5.63;;;;;;;18.75;58.28;95224.00;4939643;28;20447;-83
2023/11/07 11:50:48;;;;;;;14.50;4.03;;;;;;;18.81;57.25;95239.28;4974184;28;20493;-83
2023/11/07 11:53:33;;;;;;;10.20;3.30;;;;;;;18.79;56.21;95234.16;4974107;28;20456;-84
2023/11/07 11:56:07;;;;;;;7.70;3.30;;;;;;;18.73;57.41;95239.31;4974249;28;20459;-83
2023/11/07 11:58:33;;;;;;;5.63;2.67;;;;;;;18.80;58.52;95242.97;4973252;28;20463;-83
2023/11/07 12:01:01;;;;;;;7.00;3.20;;;;;;;18.66;56.77;95243.66;4973790;28;20446;-83
2023/11/07 12:03:36;;;;;;;6.70;2.90;;;;;;;18.63;57.00;95233.38;4974090;28;20447;-83